Time;durP1;ratioP1;P1;durP2;ratioP2;P2;SDS_P1;SDS_P2;PMS_P1;PMS_P2;Temp;Humidity;BMP_temperature;BMP_pressure;BME280_temperature;BME280_humidity;BME280_pressure;Samples;Min_cycle;Max_cycle;Signal;HPM_P1;HPM_P2
2022/05/20 00:00:07;;;;;;;;;;;;;;;12.54;100.00;-25419.31;5054769;28;19955;-76
2022/05/20 00:02:32;;;;;;;;;;;;;;;12.51;100.00;-25418.44;5054204;28;19962;-85
2022/05/20 00:04:59;;;;;;;;;;;;;;;12.47;100.00;-25417.41;5053846;28;20377;-78
2022/05/20 00:07:24;;;;;;;;;;;;;;;12.50;100.00;-25418.31;5071606;28;19959;-83
2022/05/20 00:09:50;;;;;;;;;;;;;;;12.47;100.00;-25417.28;5054293;28;19952;-77
2022/05/20 00:12:15;;;;;;;;;;;;;;;12.44;100.00;-25416.53;5053136;28;19917;-79
2022/05/20 00:14:40;;;;;;;;;;;;;;;12.46;100.00;-25417.13;5070851;28;19962;-77
2022/05/20 00:17:06;;;;;;;;;;;;;;;12.38;100.00;-25414.78;5071008;28;19939;-78
2022/05/20 00:19:32;;;;;;;;;;;;;;;12.43;100.00;-25416.09;5052302;28;19920;-78
2022/05/20 00:21:57;;;;;;;;;;;;;;;12.46;100.00;-25416.97;5052639;28;19916;-79
2022/05/20 00:24:23;;;;;;;;;;;;;;;12.47;100.00;-25417.28;5052833;28;20395;-79
2022/05/20 00:26:50;;;;;;;;;;;;;;;12.37;100.00;-25414.50;5052632;28;20922;-77
2022/05/20 00:29:16;;;;;;;;;;;;;;;12.36;100.00;-25414.34;5056037;28;19917;-77
2022/05/20 00:31:41;;;;;;;;;;;;;;;12.28;100.00;-25411.88;5057084;28;20177;-78
2022/05/20 00:34:07;;;;;;;;;;;;;;;12.31;100.00;-25412.88;5074540;28;19916;-81
2022/05/20 00:36:32;;;;;;;;;;;;;;;12.34;100.00;-25413.63;5057406;28;19923;-77
2022/05/20 00:38:57;;;;;;;;;;;;;;;12.34;100.00;-25413.75;5074453;28;19921;-81
2022/05/20 00:41:23;;;;;;;;;;;;;;;12.27;100.00;-25411.56;5057100;28;20210;-85
2022/05/20 00:43:49;;;;;;;;;;;;;;;12.12;100.00;-25407.31;5040492;28;20011;-77
2022/05/20 00:46:19;;;;;;;;;;;;;;;12.05;100.00;-25405.44;5056355;28;19967;-81
2022/05/20 00:48:45;;;;;;;;;;;;;;;11.98;100.00;-25403.53;5055871;28;19964;-81
2022/05/20 00:51:22;;;;;;;;;;;;;;;12.02;100.00;-25404.56;5057332;28;20283;-77
2022/05/20 00:53:52;;;;;;;;;;;;;;;12.09;100.00;-25406.59;5056259;28;20023;-84
2022/05/20 00:56:19;;;;;;;;;;;;;;;12.09;100.00;-25406.59;5056818;28;20003;-78
2022/05/20 00:58:45;;;;;;;;;;;;;;;12.11;100.00;-25407.03;5040359;28;19952;-82
2022/05/20 01:01:10;;;;;;;;;;;;;;;12.10;100.00;-25406.88;5056662;28;19971;-78
2022/05/20 01:03:37;;;;;;;;;;;;;;;12.06;100.00;-25405.56;5055811;28;20043;-77
2022/05/20 01:06:03;;;;;;;;;;;;;;;12.11;100.00;-25407.03;5058084;28;19917;-83
2022/05/20 01:08:30;;;;;;;;;;;;;;;12.11;100.00;-25407.19;5056535;28;19916;-84
2022/05/20 01:10:55;;;;;;;;;;;;;;;12.05;100.00;-25405.28;5056379;28;20015;-84
2022/05/20 01:13:23;;;;;;;;;;;;;;;12.05;100.00;-25405.44;5056991;28;19960;-81
2022/05/20 01:15:49;;;;;;;;;;;;;;;12.04;100.00;-25405.13;5056226;28;19916;-77
2022/05/20 01:18:15;;;;;;;;;;;;;;;12.01;100.00;-25404.41;5055795;28;19924;-81
2022/05/20 01:20:44;;;;;;;;;;;;;;;12.04;100.00;-25405.13;5073490;28;19927;-84
2022/05/20 01:23:31;;;;;;;;;;;;;;;12.02;100.00;-25404.56;5039655;28;19944;-76
2022/05/20 01:25:57;;;;;;;;;;;;;;;12.04;100.00;-25405.13;5056695;28;19917;-83
2022/05/20 01:28:24;;;;;;;;;;;;;;;12.03;100.00;-25405.00;5055732;28;20395;-83
2022/05/20 01:30:56;;;;;;;;;;;;;;;12.00;100.00;-25404.13;5056266;28;20425;-83
2022/05/20 01:33:41;;;;;;;;;;;;;;;11.90;100.00;-25401.19;5074034;28;19943;-82
2022/05/20 01:36:08;;;;;;;;;;;;;;;11.83;100.00;-25399.13;5055521;28;20293;-78
2022/05/20 01:38:34;;;;;;;;;;;;;;;11.79;100.00;-25398.09;5055360;28;20054;-79
2022/05/20 01:41:02;;;;;;;;;;;;;;;11.77;100.00;-25397.38;5055385;28;20439;-79
2022/05/20 01:43:34;;;;;;;;;;;;;;;11.78;100.00;-25397.81;5055647;28;19923;-77
2022/05/20 01:46:05;;;;;;;;;;;;;;;11.73;100.00;-25396.19;5055869;28;19920;-77
2022/05/20 01:48:35;;;;;;;;;;;;;;;11.70;100.00;-25395.47;5055822;28;19921;-76
2022/05/20 01:51:04;;;;;;;;;;;;;;;11.73;100.00;-25396.19;5055739;28;19928;-82
2022/05/20 01:53:40;;;;;;;;;;;;;;;11.68;100.00;-25394.88;5073520;28;19924;-78
2022/05/20 01:56:29;;;;;;;;;;;;;;;11.69;100.00;-25395.19;5055688;28;20034;-80
2022/05/20 01:59:08;;;;;;;;;;;;;;;11.63;100.00;-25393.41;5043110;28;19917;-83
2022/05/20 02:01:36;;;;;;;;;;;;;;;11.66;100.00;-25394.31;5054948;28;19916;-77
2022/05/20 02:04:14;;;;;;;;;;;;;;;11.67;100.00;-25394.59;5054964;28;19917;-78
2022/05/20 02:06:42;;;;;;;;;;;;;;;11.69;100.00;-25395.19;5055358;28;19916;-76
2022/05/20 02:09:26;;;;;;;;;;;;;;;11.60;100.00;-25392.69;5055691;28;20440;-76
2022/05/20 02:11:53;;;;;;;;;;;;;;;11.57;100.00;-25391.81;5055035;28;19920;-77
2022/05/20 02:14:32;;;;;;;;;;;;;;;11.57;100.00;-25391.81;5072788;28;19916;-77
2022/05/20 02:17:03;;;;;;;;;;;;;;;11.57;100.00;-25391.81;5054606;28;19917;-80
2022/05/20 02:19:40;;;;;;;;;;;;;;;11.59;100.00;-25392.41;5054888;28;19924;-80
2022/05/20 02:22:09;;;;;;;;;;;;;;;11.57;100.00;-25391.66;5073255;28;19923;-81
2022/05/20 02:24:36;;;;;;;;;;;;;;;11.60;100.00;-25392.53;5054528;28;19956;-77
2022/05/20 02:27:06;;;;;;;;;;;;;;;11.64;100.00;-25393.72;5072708;28;19920;-82
2022/05/20 02:29:36;;;;;;;;;;;;;;;11.63;100.00;-25393.41;5055166;28;19917;-82
2022/05/20 02:32:20;;;;;;;;;;;;;;;11.57;100.00;-25391.66;5072205;28;19916;-79
2022/05/20 02:34:45;;;;;;;;;;;;;;;11.55;100.00;-25391.09;5072915;28;20215;-77
2022/05/20 02:37:18;;;;;;;;;;;;;;;11.61;100.00;-25392.84;5055447;28;20276;-77
2022/05/20 02:39:43;;;;;;;;;;;;;;;11.53;100.00;-25390.50;5053942;28;19916;-78
2022/05/20 02:42:08;;;;;;;;;;;;;;;11.52;100.00;-25390.19;5054782;28;20003;-79
2022/05/20 02:44:34;;;;;;;;;;;;;;;11.48;100.00;-25389.16;5054552;28;19962;-75
2022/05/20 02:46:59;;;;;;;;;;;;;;;11.45;100.00;-25388.44;5053633;28;19963;-75
2022/05/20 02:49:24;;;;;;;;;;;;;;;11.32;100.00;-25384.63;5054163;28;19966;-76
2022/05/20 02:51:49;;;;;;;;;;;;;;;11.30;100.00;-25384.06;5071800;28;19927;-76
2022/05/20 02:54:15;;;;;;;;;;;;;;;11.28;96.03;-25383.59;5071637;28;19924;-76
2022/05/20 02:56:40;;;;;;;;;;;;;;;11.25;92.13;-25382.59;5054010;28;20355;-75
2022/05/20 03:04:33;;;;;;;;;;;;;;;11.03;83.48;-25376.28;5072271;28;20357;-77
2022/05/20 03:06:58;;;;;;;;;;;;;;;11.03;80.54;-25376.28;5053831;28;20070;-75
2022/05/20 03:09:25;;;;;;;;;;;;;;;11.05;79.03;-25376.88;5071908;28;19956;-77
2022/05/20 03:11:50;;;;;;;;;;;;;;;11.06;77.50;-25377.31;5071776;28;19921;-75
2022/05/20 03:14:17;;;;;;;;;;;;;;;11.18;76.38;-25380.69;5054070;28;20387;-76
2022/05/20 03:16:42;;;;;;;;;;;;;;;11.20;76.32;-25381.25;5053090;28;19925;-76
2022/05/20 03:19:08;;;;;;;;;;;;;;;11.26;76.34;-25382.88;5053986;28;20011;-76
2022/05/20 03:21:34;;;;;;;;;;;;;;;11.25;76.11;-25382.59;5053259;28;19946;-77
2022/05/20 03:24:02;;;;;;;;;;;;;;;11.23;76.03;-25382.00;5054062;28;20027;-84
2022/05/20 03:26:28;;;;;;;;;;;;;;;11.23;76.00;-25382.00;5054359;28;20333;-78
2022/05/20 03:28:54;;;;;;;;;;;;;;;11.19;75.83;-25380.81;5053685;28;19916;-84
2022/05/20 03:31:21;;;;;;;;;;;;;;;11.20;75.44;-25381.13;5036733;28;20392;-83
2022/05/20 03:33:47;;;;;;;;;;;;;;;11.22;75.03;-25381.84;5054141;28;19917;-81
2022/05/20 03:36:12;;;;;;;;;;;;;;;11.22;74.91;-25381.72;5054297;28;20002;-80
2022/05/20 03:38:38;;;;;;;;;;;;;;;11.24;74.82;-25382.44;5053652;28;19916;-84
2022/05/20 03:41:04;;;;;;;;;;;;;;;11.17;74.98;-25380.25;5054272;28;19923;-83
2022/05/20 03:43:32;;;;;;;;;;;;;;;11.23;74.95;-25382.16;5053877;28;20266;-77
2022/05/20 03:45:57;;;;;;;;;;;;;;;11.27;74.98;-25383.16;5053572;28;19920;-83
2022/05/20 03:48:22;;;;;;;;;;;;;;;11.26;74.97;-25382.88;5053468;28;19977;-80
2022/05/20 03:50:49;;;;;;;;;;;;;;;11.32;74.90;-25384.63;5054305;28;19920;-75
2022/05/20 03:53:14;;;;;;;;;;;;;;;11.10;75.21;-25378.47;5053640;28;19951;-76
2022/05/20 03:55:39;;;;;;;;;;;;;;;11.12;75.54;18316.88;5052883;28;20370;-82
2022/05/20 03:58:05;;;;;;;;;;;;;;;11.05;74.38;-25377.00;5053021;28;19916;-76
2022/05/20 04:00:31;;;;;;;;;;;;;;;11.09;74.21;-25378.03;5052886;28;20409;-83
2022/05/20 04:02:56;;;;;;;;;;;;;;;11.08;74.14;-25377.75;5052148;28;19924;-83
2022/05/20 04:05:24;;;;;;;;;;;;;;;11.02;74.18;-25376.13;5052866;28;19920;-79
2022/05/20 04:07:50;;;;;;;;;;;;;;;11.09;73.97;-25378.19;5070841;28;19920;-82
2022/05/20 04:10:15;;;;;;;;;;;;;;;11.04;73.40;-25376.56;5053051;28;19938;-75
2022/05/20 04:12:42;;;;;;;;;;;;;;;11.02;73.25;-25376.13;5052973;28;19974;-80
2022/05/20 04:15:09;;;;;;;;;;;;;;;10.98;73.29;-25374.97;5053448;28;19916;-80
2022/05/20 04:17:34;;;;;;;;;;;;;;;11.01;73.19;-25375.69;5052385;28;20031;-75
2022/05/20 04:19:59;;;;;;;;;;;;;;;10.96;73.23;-25374.38;5053161;28;20046;-81
2022/05/20 04:22:27;;;;;;;;;;;;;;;11.03;73.01;-25376.44;5037378;28;19981;-84
2022/05/20 04:24:55;;;;;;;;;;;;;;;11.08;72.88;-25377.75;5053199;28;19924;-83
2022/05/20 04:27:20;;;;;;;;;;;;;;;11.13;72.86;-25379.22;5052845;28;19924;-75
2022/05/20 04:29:45;;;;;;;;;;;;;;;11.34;72.74;-25385.22;5053149;28;19920;-82
2022/05/20 04:32:11;;;;;;;;;;;;;;;11.39;72.85;-25386.69;5036183;28;20229;-81
2022/05/20 04:34:36;;;;;;;;;;;;;;;11.32;73.05;-25384.63;5052996;28;20003;-81
2022/05/20 04:37:02;;;;;;;;;;;;;;;11.20;73.13;-25381.13;5053436;28;19924;-82
2022/05/20 04:39:27;;;;;;;;;;;;;;;11.22;72.85;-25381.84;5052952;28;19952;-80
2022/05/20 04:47:23;;;;;;;;;;;;;;;11.25;72.18;-25382.72;5071285;28;19978;-81
2022/05/20 04:49:48;;;;;;;;;;;;;;;11.25;72.06;-25382.72;5053460;28;19947;-80
2022/05/20 04:52:13;;;;;;;;;;;;;;;11.34;71.90;-25385.06;5053230;28;19916;-84
2022/05/20 04:54:51;;;;;;;;;;;;;;;11.40;71.79;-25386.97;5053305;28;19920;-83
2022/05/20 04:57:19;;;;;;;;;;;;;;;11.44;71.73;-25388.00;5053851;28;20317;-83
2022/05/20 04:59:45;;;;;;;;;;;;;;;11.51;71.64;-25390.06;5053656;28;19916;-83
2022/05/20 05:02:11;;;;;;;;;;;;;;;11.66;71.45;-25394.31;5053352;28;19970;-81
2022/05/20 05:04:37;;;;;;;;;;;;;;;11.75;71.40;-25396.94;5052816;28;19924;-80
2022/05/20 05:07:02;;;;;;;;;;;;;;;11.81;71.36;-25398.53;5070574;28;19923;-82
2022/05/20 05:09:27;;;;;;;;;;;;;;;11.81;71.44;-25398.69;5070570;28;19916;-81
2022/05/20 05:11:53;;;;;;;;;;;;;;;11.92;71.42;-25401.63;5054559;28;19921;-82
2022/05/20 05:14:19;;;;;;;;;;;;;;;12.06;71.41;-25405.72;5036672;28;19921;-83
2022/05/20 05:16:44;;;;;;;;;;;;;;;12.18;71.53;-25409.22;5056555;28;19916;-83
2022/05/20 05:19:10;;;;;;;;;;;;;;;12.46;71.58;-25417.13;5056986;28;19943;-82
2022/05/20 05:21:35;;;;;;;;;;;;;;;12.60;71.93;-25421.09;5055927;28;20016;-82
2022/05/20 05:24:01;;;;;;;;;;;;;;;12.79;72.45;-25426.34;5056469;28;19959;-83
2022/05/20 05:26:31;;;;;;;;;;;;;;;13.25;73.16;-25439.47;5056798;28;19916;-83
2022/05/20 05:28:56;;;;;;;;;;;;;;;13.74;76.02;-25453.34;5055720;28;20319;-75
2022/05/20 05:31:22;;;;;;;;;;;;;;;13.98;86.17;-25460.34;5073510;28;19923;-82
2022/05/20 05:33:47;;;;;;;;;;;;;;;14.18;100.00;-25465.91;5055913;28;19917;-77
2022/05/20 05:36:12;;;;;;;;;;;;;;;14.09;100.00;-25463.41;5055911;28;19916;-75
2022/05/20 05:38:38;;;;;;;;;;;;;;;14.22;100.00;-25466.91;5054400;28;19916;-80
2022/05/20 05:41:03;;;;;;;;;;;;;;;14.43;100.00;-25472.91;5055246;28;19923;-77
2022/05/20 05:43:29;;;;;;;;;;;;;;;14.08;100.00;-25462.97;5054592;28;20319;-77
2022/05/20 05:45:54;;;;;;;;;;;;;;;14.00;100.00;-25460.78;5054887;28;19916;-76
2022/05/20 05:48:19;;;;;;;;;;;;;;;14.13;100.00;-25464.44;5055093;28;19921;-75
2022/05/20 05:50:45;;;;;;;;;;;;;;;14.70;100.00;-25480.63;5055398;28;19916;-80
2022/05/20 05:53:15;;;;;;;;;;;;;;;15.15;100.00;-25493.44;5055858;28;19920;-76
2022/05/20 05:55:42;;;;;;;;;;;;;;;14.85;100.00;-25484.84;5054947;28;20007;-75
2022/05/20 05:58:08;;;;;;;;;;;;;;;14.81;100.00;-25483.69;5054713;28;19916;-78
2022/05/20 06:00:33;;;;;;;;;;;;;;;14.63;100.00;-25478.72;5054847;28;19946;-82
2022/05/20 06:02:59;;;;;;;;;;;;;;;14.32;100.00;-25469.97;5054857;28;19924;-76
2022/05/20 06:05:24;;;;;;;;;;;;;;;14.79;100.00;-25483.25;5054703;28;19927;-77
2022/05/20 06:07:51;;;;;;;;;;;;;;;15.41;100.00;-25500.84;5055031;28;19924;-75
2022/05/20 06:10:17;;;;;;;;;;;;;;;15.14;100.00;-25493.00;5054464;28;19962;-75
2022/05/20 06:12:42;;;;;;;;;;;;;;;15.47;100.00;-25502.31;5054393;28;20330;-77
2022/05/20 06:15:12;;;;;;;;;;;;;;;15.47;100.00;-25502.44;5072239;28;20019;-77
2022/05/20 06:17:37;;;;;;;;;;;;;;;15.51;100.00;-25503.63;5053976;28;19919;-77
2022/05/20 06:20:03;;;;;;;;;;;;;;;15.70;100.00;-25509.00;5054575;28;19917;-83
2022/05/20 06:22:28;;;;;;;;;;;;;;;15.81;100.00;-25511.91;5055183;28;20168;-84
2022/05/20 06:24:54;;;;;;;;;;;;;;;15.81;100.00;-25511.91;5037315;28;19921;-82
2022/05/20 06:27:19;;;;;;;;;;;;;;;16.39;100.00;-25528.47;5050496;28;20385;-81
2022/05/20 06:29:48;;;;;;;;;;;;;;;16.35;100.00;-25527.31;5052179;28;19921;-81
2022/05/20 06:32:14;;;;;;;;;;;;;;;16.76;100.00;-25538.78;5051278;28;19923;-82
2022/05/20 06:40:10;;;;;;;;;;;;;;;16.60;100.00;-25534.28;5054071;28;20027;-84
2022/05/20 06:42:35;;;;;;;;;;;;;;;16.54;100.00;-25532.53;5052530;28;20012;-80
2022/05/20 06:45:01;;;;;;;;;;;;;;;16.99;100.00;-25545.44;5054223;28;19944;-83
2022/05/20 06:47:26;;;;;;;;;;;;;;;16.86;100.00;-25541.81;5036797;28;19921;-83
2022/05/20 06:49:51;;;;;;;;;;;;;;;16.81;100.00;-25540.22;5036069;28;19920;-85
2022/05/20 06:52:16;;;;;;;;;;;;;;;16.67;100.00;-25536.44;5053112;28;19917;-85
2022/05/20 06:54:42;;;;;;;;;;;;;;;16.59;100.00;-25533.97;5052556;28;19932;-83
2022/05/20 06:57:07;;;;;;;;;;;;;;;16.49;100.00;-25531.38;5053049;28;20047;-81
2022/05/20 06:59:32;;;;;;;;;;;;;;;16.40;100.00;-25528.75;5052594;28;19920;-85
2022/05/20 07:02:00;;;;;;;;;;;;;;;16.63;100.00;-25535.16;5036171;28;19921;-84
2022/05/20 07:04:29;;;;;;;;;;;;;;;16.79;100.00;-25539.63;5053948;28;19956;-84
2022/05/20 07:06:55;;;;;;;;;;;;;;;17.31;100.00;-25554.28;5053235;28;19952;-83
2022/05/20 07:09:21;;;;;;;;;;;;;;;17.82;100.00;-25568.78;5053039;28;19921;-85
2022/05/20 07:11:46;;;;;;;;;;;;;;;18.45;100.00;-25586.44;5052202;28;20348;-80
2022/05/20 07:14:13;;;;;;;;;;;;;;;19.19;100.00;-24612.69;5052239;28;19970;-84
2022/05/20 07:16:38;;;;;;;;;;;;;;;19.19;100.00;-14340.41;5052223;28;19917;-84
2022/05/20 07:19:03;;;;;;;;;;;;;;;19.79;100.00;-10026.63;5052552;28;19931;-83
2022/05/20 07:21:29;;;;;;;;;;;;;;;19.52;100.00;6294.53;5052418;28;19917;-84
2022/05/20 07:23:54;;;;;;;;;;;;;;;19.68;100.00;16326.66;5053410;28;19917;-80
2022/05/20 07:26:19;;;;;;;;;;;;;;;19.43;100.00;29723.31;5052012;28;19921;-76
2022/05/20 07:28:45;;;;;;;;;;;;;;;20.04;100.00;35477.13;5049589;28;20569;-79
2022/05/20 07:31:10;;;;;;;;;;;;;;;19.68;100.00;45219.19;5051139;28;20011;-78
2022/05/20 07:33:39;;;;;;;;;;;;;;;19.23;100.00;57330.41;5050313;28;20018;-76
2022/05/20 07:36:06;;;;;;;;;;;;;;;19.49;100.00;46551.88;5051052;28;19923;-76
2022/05/20 07:38:31;;;;;;;;;;;;;;;19.52;100.00;45205.44;5051902;28;19924;-76
2022/05/20 07:40:57;;;;;;;;;;;;;;;18.90;100.00;54931.97;5033712;28;19920;-76
2022/05/20 07:43:24;;;;;;;;;;;;;;;18.66;100.00;45470.59;5050544;28;19921;-75
2022/05/20 07:45:50;;;;;;;;;;;;;;;18.54;100.00;56246.63;5050255;28;19921;-76
2022/05/20 07:48:16;;;;;;;;;;;;;;;18.76;100.00;66750.13;5049967;28;20373;-76
2022/05/20 07:50:43;;;;;;;;;;;;;;;18.82;100.00;69128.19;5050690;28;19923;-83
2022/05/20 07:53:32;;;;;;;;;;;;;;;18.37;100.00;75849.38;5050837;28;19970;-79
2022/05/20 07:56:01;;;;;;;;;;;;;;;18.57;100.00;55912.22;5052222;28;19924;-77
2022/05/20 07:58:27;;;;;;;;;;;;;;;18.01;100.00;57878.97;5050871;28;19962;-76
2022/05/20 08:01:02;;;;;;;;;;;;;;;19.01;100.00;48532.59;5051953;28;20027;-78
2022/05/20 08:06:16;;;;;;;;;;;;;;;19.61;100.00;99527.91;5051082;28;19928;-76
2022/05/20 08:08:41;;;;;;;;;;;;;;;19.24;100.00;106643.94;5051282;28;19916;-75
2022/05/20 08:11:07;;;;;;;;;;;;;;;19.59;100.00;99523.50;5050651;28;20007;-77
2022/05/20 08:13:32;;;;;;;;;;;;;;;19.50;100.00;117660.75;5051680;28;19913;-76
2022/05/20 08:15:58;;;;;;;;;;;;;;;19.38;100.00;110778.34;5050438;28;20024;-76
2022/05/20 08:18:23;;;;;;;;;;;;;;;19.34;100.00;104266.88;5050957;28;19917;-76
2022/05/20 08:20:48;;;;;;;;;;;;;;;19.09;100.00;101830.28;5050484;28;20303;-77
2022/05/20 08:23:14;;;;;;;;;;;;;;;18.73;100.00;101425.03;5049388;28;19924;-78
2022/05/20 08:25:39;;;;;;;;;;;;;;;18.57;100.00;84365.47;5049030;28;19924;-75
2022/05/20 08:28:07;;;;;;;;;;;;;;;18.96;100.00;76945.75;5064598;28;19920;-77
2022/05/20 08:30:32;;;;;;;;;;;;;;;19.24;100.00;91957.09;5053830;28;20020;-76
2022/05/20 08:33:01;;;;;;;;;;;;;;;19.43;100.00;95057.00;5072053;28;20378;-76
2022/05/20 08:35:27;;;;;;;;;;;;;;;18.95;100.00;114464.34;5053920;28;19921;-77
2022/05/20 08:37:53;;;;;;;;;;;;;;;18.91;100.00;120629.75;5053630;28;20306;-78
2022/05/20 08:40:21;;;;;;;;;;;;;;;18.96;100.00;118238.59;5054230;28;19999;-77
2022/05/20 08:42:48;;;;;;;;;;;;;;;19.27;100.00;110071.97;5054417;28;19917;-78
2022/05/20 08:45:17;;;;;;;;;;;;;;;19.29;100.00;114874.47;5053974;28;19917;-77
2022/05/20 08:47:46;;;;;;;;;;;;;;;19.55;100.00;131768.16;5070684;28;19920;-77
2022/05/20 08:50:15;;;;;;;;;;;;;;;19.30;100.00;147577.84;5056607;28;19921;-76
2022/05/20 08:52:41;;;;;;;;;;;;;;;19.50;100.00;137271.09;5057177;28;19920;-77
2022/05/20 08:55:07;;;;;;;;;;;;;;;19.28;100.00;146657.44;5057327;28;20478;-77
2022/05/20 08:57:33;;;;;;;;;;;;;;;19.82;100.00;121503.97;5057222;28;20446;-78
2022/05/20 08:59:59;;;;;;;;;;;;;;;19.50;100.00;139685.97;5057651;28;19960;-79
2022/05/20 09:02:26;;;;;;;;;;;;;;;19.81;100.00;134238.41;5075703;28;19916;-78
2022/05/20 09:04:53;;;;;;;;;;;;;;;19.87;100.00;137702.16;5075183;28;20007;-81
2022/05/20 09:07:19;;;;;;;;;;;;;;;19.68;100.00;147673.84;5057530;28;19916;-78
2022/05/20 09:09:52;;;;;;;;;;;;;;;19.05;100.00;147516.41;5074959;28;19966;-78
2022/05/20 09:12:27;;;;;;;;;;;;;;;18.37;100.00;147347.44;5056103;28;19917;-80
2022/05/20 09:17:44;;;;;;;;;;;;;;;18.82;100.00;141249.63;5075725;28;19939;-80
2022/05/20 09:20:14;;;;;;;;;;;;;;;18.59;100.00;147401.19;5057826;28;20364;-77
2022/05/20 09:22:40;;;;;;;;;;;;;;;18.88;100.00;142580.88;5057767;28;19916;-83
2022/05/20 09:25:11;;;;;;;;;;;;;;;18.91;100.00;141616.66;5075526;28;19936;-81
2022/05/20 09:27:37;;;;;;;;;;;;;;;19.21;100.00;142917.63;5042350;28;19968;-78
2022/05/20 09:30:07;;;;;;;;;;;;;;;19.27;100.00;147571.44;5067974;28;19920;-81
2022/05/20 09:32:37;;;;;;;;;;;;;;;19.75;100.00;147690.53;5057334;28;19922;-81
2022/05/20 09:35:14;;;;;;;;;;;;;;;19.76;100.00;147693.06;5057563;28;19944;-83
2022/05/20 09:37:39;;;;;;;;;;;;;;;19.84;100.00;147712.31;5075995;28;19952;-86
2022/05/20 09:40:19;;;;;;;;;;;;;;;19.38;100.00;147599.59;5057549;28;19964;-83
2022/05/20 09:43:01;;;;;;;;;;;;;;;19.28;100.00;147572.72;5058186;28;19995;-82
2022/05/20 09:45:26;;;;;;;;;;;;;;;19.01;100.00;147506.16;5067607;28;19920;-81
2022/05/20 09:47:54;;;;;;;;;;;;;;;19.31;100.00;126210.03;5038227;28;19916;-85
2022/05/20 09:50:34;;;;;;;;;;;;;;;19.44;100.00;125892.56;5039224;28;20013;-80
2022/05/20 09:53:36;;;;;;;;;;;;;;;19.27;100.00;147571.44;5038202;28;19921;-78
2022/05/20 09:56:18;;;;;;;;;;;;;;;19.48;100.00;147622.63;4991636;28;19922;-78
2022/05/20 09:58:57;;;;;;;;;;;;;;;19.50;100.00;147629.06;5032068;28;19917;-79
2022/05/20 10:01:23;;;;;;;;;;;;;;;19.45;100.00;147614.97;5036115;28;19916;-77
2022/05/20 10:03:54;;;;;;;;;;;;;;;19.35;100.00;147590.66;5036271;28;20660;-78
2022/05/20 10:06:25;;;;;;;;;;;;;;;19.27;100.00;147570.19;5037112;28;20342;-77
2022/05/20 10:09:09;;;;;;;;;;;;;;;19.22;100.00;147558.66;5036782;28;19921;-79
2022/05/20 10:11:45;;;;;;;;;;;;;;;19.48;100.00;146927.13;5037367;28;20369;-77
2022/05/20 10:14:17;;;;;;;;;;;;;;;19.46;100.00;146573.66;5037281;28;19921;-78
2022/05/20 10:16:47;;;;;;;;;;;;;;;19.64;100.00;147662.31;5036985;28;19916;-78
2022/05/20 10:19:15;;;;;;;;;;;;;;;19.63;100.00;147661.06;5036424;28;20460;-78
2022/05/20 10:21:50;;;;;;;;;;;;;;;19.46;100.00;147618.78;5054422;28;20007;-78
2022/05/20 10:24:24;;;;;;;;;;;;;;;19.30;100.00;147579.13;5036711;28;19939;-78
2022/05/20 10:27:09;;;;;;;;;;;;;;;19.41;100.00;147606.00;5036409;28;20485;-78
2022/05/20 10:33:02;;;;;;;;;;;;;;;19.55;100.00;147640.56;5054336;28;20024;-79
2022/05/20 10:35:46;;;;;;;;;;;;;;;19.94;100.00;147737.94;5036663;28;19924;-79
2022/05/20 10:38:20;;;;;;;;;;;;;;;20.09;100.00;147776.38;5036646;28;20284;-78
2022/05/20 10:40:59;;;;;;;;;;;;;;;19.60;100.00;147653.38;5036325;28;19927;-79
2022/05/20 10:43:29;;;;;;;;;;;;;;;19.70;100.00;147677.69;5036148;28;19924;-78
2022/05/20 10:49:06;;;;;;;;;;;;;;;19.37;100.00;147597.06;5054600;28;19963;-78
2022/05/20 10:51:34;;;;;;;;;;;;;;;19.30;100.00;147577.84;5035993;28;19924;-78
2022/05/20 10:54:21;;;;;;;;;;;;;;;19.29;100.00;147575.28;5036066;28;19943;-77
2022/05/20 10:57:05;;;;;;;;;;;;;;;19.17;100.00;147545.81;5053244;28;19924;-77
2022/05/20 10:59:44;;;;;;;;;;;;;;;19.10;100.00;147529.19;5053287;28;19921;-78
2022/05/20 11:02:28;;;;;;;;;;;;;;;19.49;100.00;147625.22;5036443;28;19917;-76
2022/05/20 11:05:11;;;;;;;;;;;;;;;19.51;100.00;147630.31;5035424;28;19924;-80
2022/05/20 11:07:42;;;;;;;;;;;;;;;19.25;100.00;147566.34;5035997;28;19964;-78
2022/05/20 11:10:10;;;;;;;;;;;;;;;19.20;100.00;137891.34;5036268;28;19917;-81
2022/05/20 11:12:56;;;;;;;;;;;;;;;19.33;100.00;135853.97;5035433;28;19919;-78
2022/05/20 11:15:29;;;;;;;;;;;;;;;19.43;100.00;145550.88;5053445;28;19924;-80
2022/05/20 11:18:03;;;;;;;;;;;;;;;19.45;100.00;147616.28;5036183;28;19916;-83
2022/05/20 11:20:43;;;;;;;;;;;;;;;19.67;100.00;147670.00;5035497;28;20276;-78
2022/05/20 11:23:29;;;;;;;;;;;;;;;20.08;100.00;147772.53;5035998;28;19916;-79
2022/05/20 11:26:13;;;;;;;;;;;;;;;20.08;100.00;147772.53;5036406;28;19917;-79
2022/05/20 11:28:58;;;;;;;;;;;;;;;19.58;100.00;147648.25;5035461;28;19924;-80
2022/05/20 11:31:46;;;;;;;;;;;;;;;19.49;100.00;147625.22;5035349;28;20002;-78
2022/05/20 11:34:32;;;;;;;;;;;;;;;19.01;100.00;147507.41;5036191;28;19920;-79
2022/05/20 11:37:04;;;;;;;;;;;;;;;19.01;100.00;147507.41;5035733;28;19967;-79
2022/05/20 11:39:35;;;;;;;;;;;;;;;18.87;100.00;144032.63;5053295;28;19917;-80
2022/05/20 11:42:19;;;;;;;;;;;;;;;18.72;100.00;123336.13;5036291;28;19977;-79
2022/05/20 11:45:14;;;;;;;;;;;;;;;18.72;100.00;93918.22;5035926;28;19923;-78
2022/05/20 11:47:39;;;;;;;;;;;;;;;18.69;100.00;88464.06;5050260;28;19917;-78
2022/05/20 11:50:18;;;;;;;;;;;;;;;18.57;100.00;77911.84;5035945;28;19931;-84
2022/05/20 11:52:51;;;;;;;;;;;;;;;18.38;100.00;61970.63;5035535;28;19921;-81
2022/05/20 11:55:36;;;;;;;;;;;;;;;18.17;100.00;53847.94;5035765;28;20027;-79
2022/05/20 11:58:06;;;;;;;;;;;;;;;18.04;100.00;42728.38;5053603;28;19921;-79
2022/05/20 12:00:34;;;;;;;;;;;;;;;17.86;100.00;35328.09;5035982;28;19947;-80
2022/05/20 12:03:14;;;;;;;;;;;;;;;17.69;100.00;27612.56;5052969;28;20356;-82
2022/05/20 12:05:40;;;;;;;;;;;;;;;17.57;100.00;16580.50;5051834;28;20289;-77
2022/05/20 12:08:06;;;;;;;;;;;;;;;17.33;100.00;7909.66;5034375;28;19917;-77
2022/05/20 12:10:32;;;;;;;;;;;;;;;17.24;100.00;-16634.84;5052034;28;19943;-77
2022/05/20 12:13:19;;;;;;;;;;;;;;;16.94;100.00;-25543.84;5036634;28;19917;-78
2022/05/20 12:15:49;;;;;;;;;;;;;;;16.41;100.00;-25529.03;5036641;28;19959;-85
2022/05/20 12:24:27;;;;;;;;;;;;;;;16.23;100.00;-25523.97;5051803;28;19983;-76
2022/05/20 12:26:53;;;;;;;;;;;;;;;16.20;100.00;-25522.94;5036933;28;20011;-76
2022/05/20 12:29:34;;;;;;;;;;;;;;;16.32;100.00;-25526.44;5054861;28;19927;-75
2022/05/20 12:31:59;;;;;;;;;;;;;;;16.25;100.00;-25524.53;5037432;28;19927;-75
2022/05/20 12:34:40;;;;;;;;;;;;;;;16.04;100.00;-25518.59;5037191;28;20011;-76
2022/05/20 12:37:05;;;;;;;;;;;;;;;15.93;100.00;-25515.53;5037000;28;19925;-74
2022/05/20 12:39:50;;;;;;;;;;;;;;;16.14;100.00;-25521.34;5036735;28;19979;-75
2022/05/20 12:42:20;;;;;;;;;;;;;;;15.95;100.00;-25515.97;5037468;28;19920;-75
2022/05/20 12:44:47;;;;;;;;;;;;;;;16.00;100.00;-25517.44;5037060;28;19967;-74
2022/05/20 12:47:15;;;;;;;;;;;;;;;15.93;100.00;-25515.41;5055363;28;20011;-74
2022/05/20 12:49:44;;;;;;;;;;;;;;;15.72;100.00;-25509.44;5075822;28;19924;-82
2022/05/20 12:52:12;;;;;;;;;;;;;;;15.84;100.00;-25512.78;5061983;28;19916;-80
2022/05/20 12:54:42;;;;;;;;;;;;;;;15.55;100.00;-25504.78;5074465;28;19920;-74
2022/05/20 12:57:10;;;;;;;;;;;;;;;15.43;100.00;-25501.28;5041437;28;20136;-77
2022/05/20 12:59:37;;;;;;;;;;;;;;;15.51;100.00;-25503.47;5065880;28;19916;-82
2022/05/20 13:02:06;;;;;;;;;;;;;;;15.54;100.00;-25504.50;5075383;28;19999;-82
2022/05/20 13:04:43;;;;;;;;;;;;;;;15.64;100.00;-25507.25;5077615;28;19916;-76
2022/05/20 13:07:12;;;;;;;;;;;;;;;15.25;100.00;-25496.19;5055910;28;19917;-78
2022/05/20 13:09:39;;;;;;;;;;;;;;;15.24;100.00;-25495.91;5038442;28;19924;-76
2022/05/20 13:12:07;;;;;;;;;;;;;;;15.29;100.00;-25497.22;5038586;28;20303;-80
2022/05/20 13:14:36;;;;;;;;;;;;;;;15.18;100.00;-25494.16;5055920;28;19916;-79